• Join FlightAware (Why Join?)
  • Login
  • US Flag 
02:58AM EDT


 

Airport Tracker/Info


-or-


 

Live Flight TrackerFlight Track Log ✈ EJA600 ✈ 16-May-2013 ✈ CYYZ - KMIA

Flight Track Log - Related Links

Times and Time Zones

All times are in EDT time to prevent confusion due to time zone crossing. See the EJA600 flight status page for this flight to view local times or setup timezone preferences in your user account.

Time Position Orientation Groundspeed Altitude Reporting Facility
EDT Latitude Longitude Course Direction KTS MPH feet Rate Location/Type
06:45PM 43.7000 -79.5167 55° Northeast 220 253 4,100  Level Toronto Center
06:46PM 43.6667 -79.4333 119° Southeast 290 334 6,800 1,440 Climbing Toronto Center
06:47PM 43.6000 -79.4000 160° South 300 345 7,000 60 Climbing Toronto Center
06:48PM 43.5167 -79.4000 180° South 290 334 7,000  Level Toronto Center
06:49PM 43.4667 -79.5000 235° Southwest 270 311 7,100 1,620 Climbing Toronto Center
06:50PM 43.0543 -80.2565 232° Southwest  Level FlightAware Approximate
06:50PM 43.4167 -79.5667 224° Southwest 270 311 10,300  Level Toronto Center
06:51PM 43.3667 -79.6500 230° Southwest 270 311 13,000 2,520 Climbing Toronto Center
06:52PM 43.3167 -79.7500 236° Southwest 300 345 15,400 2,400 Climbing Toronto Center
06:53PM 43.2667 -79.8333 231° Southwest 320 368 17,900 2,460 Climbing Toronto Center
06:54PM 43.2167 -79.9500 240° Southwest 320 368 20,400 2,460 Climbing Toronto Center
06:55PM 43.1500 -80.0500 228° Southwest 320 368 22,900 2,160 Climbing Toronto Center
06:56PM 43.1000 -80.1333 231° Southwest 330 380 24,800 1,500 Climbing Toronto Center
06:57PM 43.0500 -80.2500 240° Southwest 340 391 26,000 720 Climbing Toronto Center
06:58PM 42.9833 -80.3667 232° Southwest 370 426 26,300 900 Climbing Toronto Center
06:59PM 42.9167 -80.4833 232° Southwest 390 449 27,800 1,380 Climbing Toronto Center
07:00PM 42.8728 -80.5917 241° Southwest 384 442 28,900 1,380 Climbing Cleveland Center
07:01PM 42.8122 -80.7050 234° Southwest 389 448 30,400 1,500 Climbing Cleveland Center
07:02PM 42.7475 -80.8178 232° Southwest 389 448 31,900 1,500 Climbing Cleveland Center
07:03PM 42.6764 -80.9192 226° Southwest 384 442 33,400 4,020 Climbing Cleveland Center
07:04PM 42.5844 -81.0089 216° Southwest 397 457 40,000 300 Climbing Cleveland Center
07:05PM 42.4944 -81.0928 215° Southwest 403 464 34,000 -2,160 Descending Cleveland Center
07:06PM 42.4025 -81.1822 216° Southwest 408 470 35,700 1,680 Climbing Cleveland Center
07:07PM 42.3289 -81.2544 216° Southwest 395 455 37,400 1,800 Climbing Cleveland Center
07:08PM 42.2453 -81.3319 214° Southwest 376 433 39,300 1,260 Climbing Cleveland Center
07:09PM 42.1656 -81.4067 215° Southwest 361 415 40,000 300 Climbing Cleveland Center
07:10PM 42.0794 -81.4894 216° Southwest 372 428 40,000  Level Cleveland Center
07:11PM 41.9869 -81.5747 214° Southwest 393 452 40,000  Level Cleveland Center
07:12PM 41.8986 -81.6600 216° Southwest 402 463 40,000  Level Cleveland Center
07:13PM 41.8061 -81.7447 214° Southwest 402 463 40,000  Level Cleveland Center
07:14PM 41.7156 -81.8294 215° Southwest 402 463 40,000  Level Cleveland Center
07:15PM 41.6206 -81.9219 216° Southwest 396 456 40,000  Level Cleveland Center
07:16PM 41.5322 -82.0033 215° Southwest 396 456 40,000  Level Cleveland Center
07:17PM 41.4436 -82.0844 214° Southwest 396 456 40,000  Level Cleveland Center
07:18PM 41.3547 -82.1708 216° Southwest 396 456 40,000  Level Cleveland Center
07:19PM 41.2908 -82.2800 232° Southwest 385 443 40,000  Level Cleveland Center
07:20PM 41.2306 -82.3917 234° Southwest 379 436 40,000  Level Cleveland Center
07:21PM 41.1661 -82.5056 233° Southwest 386 444 40,000  Level Cleveland Center
07:22PM 41.1039 -82.6142 233° Southwest 376 433 40,000  Level Cleveland Center
07:23PM 41.0436 -82.7250 234° Southwest 381 438 40,000  Level Cleveland Center
07:24PM 40.9808 -82.8386 234° Southwest 381 438 40,000  Level Cleveland Center
07:25PM 40.9181 -82.9464 232° Southwest 381 438 40,000  Level Cleveland Center
07:27PM 40.7667 -83.2150 233° Southwest 383 441 40,000  Level Indianapolis Center
07:28PM 40.7017 -83.3278 233° Southwest 384 442 40,000  Level Indianapolis Center
07:29PM 40.6369 -83.4403 233° Southwest 384 442 40,000  Level Indianapolis Center
07:30PM 40.5614 -83.5728 233° Southwest 384 442 40,000  Level Indianapolis Center
07:31PM 40.4961 -83.6847 233° Southwest 383 441 40,000  Level Indianapolis Center
07:32PM 40.4317 -83.7978 233° Southwest 385 443 40,000  Level Indianapolis Center
07:34PM 40.3664 -83.9086 232° Southwest 382 440 40,000  Level Indianapolis Center
07:35PM 40.3014 -84.0200 233° Southwest 382 440 40,000  Level Indianapolis Center
07:36PM 40.2103 -84.0986 213° Southwest 388 447 40,000  Level Indianapolis Center
07:37PM 40.1150 -84.1692 210° Southwest 393 452 40,000  Level Indianapolis Center
07:38PM 40.0178 -84.2400 209° Southwest 397 457 40,000  Level Indianapolis Center
07:39PM 39.9022 -84.3214 208° Southwest 402 463 40,000  Level Indianapolis Center
07:40PM 39.8036 -84.3928 209° Southwest 404 465 40,000  Level Indianapolis Center
07:41PM 39.7050 -84.4628 209° Southwest 402 463 40,000  Level Indianapolis Center
07:42PM 39.6075 -84.5319 209° Southwest 399 459 40,000  Level Indianapolis Center
07:43PM 39.5058 -84.5922 205° Southwest 399 459 40,000  Level Indianapolis Center
07:44PM 39.3892 -84.5925 180° South 412 474 40,000  Level Indianapolis Center
07:45PM 39.2725 -84.5897 179° South 416 479 40,000  Level Indianapolis Center
07:46PM 39.1544 -84.5864 179° South 419 482 40,000  Level Indianapolis Center
07:47PM 39.0164 -84.5828 179° South 423 487 40,000  Level Indianapolis Center
07:48PM 38.8950 -84.5792 179° South 430 495 40,000  Level Indianapolis Center
07:49PM 38.7764 -84.5750 178° South 428 493 40,000  Level Indianapolis Center
07:50PM 38.6594 -84.5711 179° South 422 486 40,000  Level Indianapolis Center
07:51PM 38.5289 -84.5675 179° South 424 488 40,000  Level Indianapolis Center
07:52PM 38.4086 -84.5656 179° South 430 495 40,000  Level Indianapolis Center
07:53PM 38.2883 -84.5606 178° South 432 497 40,000  Level Indianapolis Center
07:54PM 38.1681 -84.5578 179° South 434 499 40,000  Level Indianapolis Center
07:55PM 38.0497 -84.5533 178° South 426 490 40,000  Level Indianapolis Center
07:56PM 37.9300 -84.5508 179° South 427 491 40,000  Level Indianapolis Center
07:57PM 37.8125 -84.5467 178° South 424 488 40,000  Level Indianapolis Center
07:58PM 37.6739 -84.5428 179° South 427 491 40,000  Level Indianapolis Center
07:59PM 37.5533 -84.5394 179° South 431 496 40,000  Level Indianapolis Center
08:00PM 37.4325 -84.5369 179° South 435 501 40,000  Level Indianapolis Center
08:01PM 37.3147 -84.5331 178° South 427 491 40,000  Level Indianapolis Center
08:02PM 37.1975 -84.5306 179° South 422 486 40,000  Level Indianapolis Center
08:03PM 37.0800 -84.5264 178° South 421 484 40,000 360 Level Indianapolis Center
08:04PM 36.9594 -84.5231 179° South 420 483 40,800 480 Climbing Indianapolis Center
08:05PM 36.8425 -84.5208 179° South 418 481 41,000 60 Climbing Indianapolis Center
08:06PM 36.7233 -84.5172 179° South 425 489 41,000  Level Indianapolis Center
08:07PM 36.5808 -84.5133 179° South 425 489 41,000  Level Indianapolis Center
08:08PM 36.4619 -84.5094 178° South 425 489 41,000  Level Indianapolis Center
08:09PM 36.3428 -84.5058 179° South 426 490 41,000  Level Indianapolis Center
08:11PM 36.2253 -84.5028 179° South 423 487 41,000  Level Indianapolis Center
08:12PM 36.1092 -84.4997 179° South 415 478 41,000  Level Indianapolis Center
08:12PM 35.9969 -84.4981 179° South 418 481 41,000  Level Atlanta Center
08:13PM 35.8822 -84.4950 179° South 418 481 41,000  Level Atlanta Center
08:14PM 35.7822 -84.4919 179° South 418 481 41,000  Level Atlanta Center
08:15PM 35.6694 -84.4886 179° South 413 475 41,000  Level Atlanta Center
08:16PM 35.5569 -84.4856 179° South 413 475 41,000  Level Atlanta Center
08:17PM 35.4442 -84.4822 179° South 407 468 41,000  Level Atlanta Center
08:18PM 35.3336 -84.4792 179° South 401 461 41,000  Level Atlanta Center
08:19PM 35.2231 -84.4786 180° South 401 461 41,000  Level Atlanta Center
08:20PM 35.1083 -84.4756 179° South 406 467 41,000  Level Atlanta Center
08:21PM 34.9978 -84.4722 179° South 406 467 41,000  Level Atlanta Center
08:22PM 34.8767 -84.4667 178° South 394 453 41,000  Level Atlanta Center
08:23PM 34.7764 -84.4661 180° South 394 453 41,000  Level Atlanta Center
08:24PM 34.6597 -84.4606 178° South 404 465 41,000  Level Atlanta Center
08:25PM 34.5469 -84.4600 180° South 404 465 41,000  Level Atlanta Center
08:26PM 34.4342 -84.4544 178° South 404 465 41,000  Level Atlanta Center
08:27PM 34.3175 -84.4539 180° South 410 472 41,000  Level Atlanta Center
08:28PM 34.2028 -84.4508 179° South 410 472 41,000  Level Atlanta Center
08:29PM 34.0836 -84.4478 179° South 418 481 41,000  Level Atlanta Center
08:30PM 33.9669 -84.4444 179° South 424 488 41,000  Level Atlanta Center
08:31PM 33.8542 -84.4442 180° South 417 480 41,000  Level Atlanta Center
08:32PM 33.7414 -84.4411 179° South 417 480 41,000  Level Atlanta Center
08:33PM 33.6308 -84.4381 179° South 406 467 41,000  Level Atlanta Center
08:34PM 33.5139 -84.4350 179° South 406 467 41,000  Level Atlanta Center
08:35PM 33.4033 -84.4319 179° South 406 467 41,000  Level Atlanta Center
08:36PM 33.2906 -84.4314 180° South 401 461 41,000  Level Atlanta Center
08:37PM 33.1758 -84.4283 179° South 406 467 41,000  Level Atlanta Center
08:38PM 33.0528 -84.4256 179° South 406 467 41,000  Level Atlanta Center
08:39PM 32.9400 -84.4200 178° South 406 467 41,000  Level Atlanta Center
08:40PM 32.8253 -84.4119 177° South 411 473 41,000  Level Atlanta Center
08:41PM 32.7250 -84.3919 170° South 411 473 41,000  Level Atlanta Center
08:43PM 32.4964 -84.3533 172° South 414 476 41,000  Level Jacksonville Center
08:44PM 32.3839 -84.3317 171° South 414 476 41,000  Level Jacksonville Center
08:45PM 32.2692 -84.3128 172° South 414 476 41,000  Level Jacksonville Center
08:46PM 32.1567 -84.2939 172° South 414 476 41,000  Level Jacksonville Center
08:47PM 32.0442 -84.2750 172° South 409 471 41,000  Level Jacksonville Center
08:48PM 31.9294 -84.2536 171° South 409 471 41,000  Level Jacksonville Center
08:49PM 31.8169 -84.2350 172° South 409 471 41,000  Level Jacksonville Center
08:50PM 31.7025 -84.2161 172° South 409 471 41,000  Level Jacksonville Center
08:51PM 31.5836 -84.1950 171° South 414 476 41,000  Level Jacksonville Center
08:52PM 31.4672 -84.1519 162° South 426 490 41,000  Level Jacksonville Center
08:53PM 31.3611 -84.1067 160° South 438 504 41,000  Level Jacksonville Center
08:54PM 31.2447 -84.0589 161° South 444 511 41,000  Level Jacksonville Center
08:55PM 31.1281 -84.0114 161° South 444 511 41,000  Level Jacksonville Center
08:56PM 31.0117 -83.9592 159° South 444 511 41,000  Level Jacksonville Center
08:57PM 30.8950 -83.9142 162° South 444 511 41,000  Level Jacksonville Center
08:58PM 30.7786 -83.8647 160° South 444 511 41,000  Level Jacksonville Center
08:59PM 30.6619 -83.8175 161° South 444 511 41,000  Level Jacksonville Center
09:00PM 30.5369 -83.7656 160° South 444 511 41,000  Level Jacksonville Center
09:01PM 30.4206 -83.7189 161° South 439 505 41,000  Level Jacksonville Center
09:02PM 30.3017 -83.6722 161° South 444 511 41,000  Level Jacksonville Center
09:03PM 30.1872 -83.6256 161° South 444 511 41,000  Level Jacksonville Center
09:04PM 30.0706 -83.5789 161° South 444 511 41,000  Level Jacksonville Center
09:05PM 29.9539 -83.5350 162° South 444 511 41,000  Level Jacksonville Center
09:06PM 29.8372 -83.4864 160° South 444 511 41,000  Level Jacksonville Center
09:07PM 29.7183 -83.4425 162° South 444 511 41,000  Level Jacksonville Center
09:08PM 29.6036 -83.3942 160° South 444 511 41,000  Level Jacksonville Center
09:09PM 29.4850 -83.3458 160° South 444 511 41,000  Level Jacksonville Center
09:10PM 29.3681 -83.2978 160° South 444 511 41,000  Level Jacksonville Center
09:11PM 29.2492 -83.2544 162° South 444 511 41,000  Level Jacksonville Center
09:12PM 29.1389 -83.2089 160° South 444 511 41,000  Level Jacksonville Center
09:13PM 29.0200 -83.1608 161° South 444 511 41,000  Level Jacksonville Center
09:14PM 28.9031 -83.1156 161° South 444 511 41,000  Level Jacksonville Center
09:15PM 28.7842 -83.0678 161° South 444 511 41,000  Level Jacksonville Center
09:16PM 28.6675 -83.0228 161° South 444 511 41,000  Level Jacksonville Center
09:17PM 28.5506 -82.9753 160° South 444 511 41,000  Level Jacksonville Center
09:18PM 28.4442 -82.9375 163° South 444 511 41,000  Level Jacksonville Center
09:19PM 28.3272 -82.8925 161° South 444 511 41,000  Level Jacksonville Center
09:20PM 28.2564 -82.8636 160° South 439 505 41,000  Level Miami Center
09:21PM 28.1372 -82.8197 162° South 444 511 41,000  Level Miami Center
09:22PM 28.0286 -82.7717 159° South 454 522 41,000  Level Miami Center
09:23PM 27.9075 -82.7278 162° South 459 528 41,000  Level Miami Center
09:24PM 27.7781 -82.6789 162° South 452 520 41,000  Level Miami Center
09:25PM 27.6669 -82.6356 161° South 457 526 41,000  Level Miami Center
09:26PM 27.5500 -82.5900 161° South 451 519 41,000  Level Miami Center
09:27PM 27.4183 -82.5414 162° South 451 519 41,000  Level Miami Center
09:28PM 27.3133 -82.4544 144° Southeast 462 532 41,000 -540 Level Miami Center
09:29PM 27.2211 -82.3542 136° Southeast 462 532 40,000 -1,200 Descending Miami Center
09:30PM 27.1347 -82.2639 137° Southeast 467 537 38,700 -1,500 Descending Miami Center
09:31PM 27.0264 -82.1492 137° Southeast 480 552 37,100 -1,260 Descending Miami Center
09:32PM 26.9397 -82.0614 138° Southeast 475 547 36,200 -1,200 Descending Miami Center
09:33PM 26.8431 -81.9594 137° Southeast 475 547 34,700 -1,680 Descending Miami Center
09:34PM 26.7486 -81.8578 136° Southeast 475 547 32,900 -1,920 Descending Miami Center
09:35PM 26.6519 -81.7558 137° Southeast 480 552 30,900 -2,340 Descending Miami Center
09:36PM 26.5592 -81.6592 137° Southeast 480 552 28,300 -2,760 Descending Miami Center
09:37PM 26.4581 -81.5531 137° Southeast 462 532 25,400 -2,760 Descending Miami Center
09:38PM 26.3672 -81.4592 137° Southeast 456 525 22,800 -2,520 Descending Miami Center
09:39PM 26.2761 -81.3675 138° Southeast 450 518 20,400 -2,400 Descending Miami Center
09:40PM 26.1933 -81.2764 135° Southeast 439 505 18,000 -2,340 Descending Miami Center
09:41PM 26.1119 -81.1972 139° Southeast 419 482 15,800 -2,100 Descending Miami Center
09:42PM 26.0392 -81.1183 136° Southeast 388 447 13,800 -2,100 Descending Miami Center
09:43PM 25.9761 -81.0583 139° Southeast 359 413 12,100 -1,980 Descending Miami Center
09:44PM 25.9164 -80.9592 124° Southeast 315 362 10,100 -1,680 Descending Miami Center
09:45PM 25.8978 -80.8800 105° East 294 338 8,700 -1,500 Descending Miami Center
09:46PM 25.8814 -80.7917 102° East 290 334 7,200 -1,500 Descending Miami Center
09:47PM 25.8608 -80.6964 103° East 272 313 5,600 -1,260 Descending Miami Center
09:48PM 25.8442 -80.6150 103° East 269 310 4,600 -960 Descending Miami Center
09:49PM 25.8336 -80.5408 99° East 275 316 3,700 -1,140 Descending Miami Center
09:50PM 25.8125 -80.4642 107° East 244 281 2,400 -1,200 Descending Miami Center
09:51PM 25.8036 -80.3969 98° East 244 281 1,400 -780 Descending Miami Center
09:52PM 25.7983 -80.3528 98° East 113 130 900 -540 Descending Miami Center
09:54PM 25.7954 -80.2901 20° North  Level Estimated
10:01PM 25.7954 -80.2901 20° North  Level Estimated
10:02PM 25.7954 -80.2901 20° North  Level Estimated
10:03PM 25.7954 -80.2901 20° North  Level Estimated
10:04PM 25.7954 -80.2901 20° North  Level Estimated
10:05PM 25.7954 -80.2901 20° North  Level Estimated
10:06PM 25.7954 -80.2901 20° North  Level Estimated
10:07PM 25.7954 -80.2901 20° North  Level Estimated
10:08PM 25.7954 -80.2901 20° North  Level Estimated
10:09PM 25.7954 -80.2901 20° North  Level Estimated
10:10PM 25.7954 -80.2901 20° North  Level Estimated
10:11PM 25.7954 -80.2901 20° North  Level Estimated
10:12PM 25.7954 -80.2901 20° North  Level Estimated